ADDS METAR Data INFO
IDs: Format: Raw Decoded Include TAF

Data at: 0103 UTC 21 Oct 2017

KONL 210055Z AUTO 17019G26KT 10SM CLR 21/14 A2953 RMK AO2 T02100139
KONL 210035Z AUTO 16013KT 10SM CLR 21/14 A2953 RMK AO2 T02060141
KONL 210015Z AUTO 16017G23KT 10SM CLR 21/14 A2953 RMK AO2 T02100141
KONL 202355Z AUTO 16016G22KT 10SM CLR 22/14 A2953 RMK AO2 T02150137 10241 20210
KONL 202335Z AUTO 17014G22KT 10SM CLR 22/14 A2953 RMK AO2 T02160140
KONL 202315Z AUTO 17017G23KT 10SM SCT050 22/14 A2953 RMK AO2 T02200135
KONL 202255Z AUTO 17017G23KT 10SM BKN050 22/14 A2953 RMK AO2 T02240135
KONL 202235Z AUTO 17018G25KT 10SM SCT050 23/14 A2954 RMK AO2 T02260135
KONL 202215Z AUTO 18018G27KT 10SM SCT050 23/13 A2954 RMK AO2 T02280134
KONL 202155Z AUTO 18019G33KT 10SM SCT050 23/13 A2955 RMK AO2 T02330129
KONL 202135Z AUTO 17022G30KT 10SM BKN050 24/13 A2955 RMK AO2 T02380131
KONL 202115Z AUTO 17017G26KT 10SM OVC050 23/13 A2956 RMK AO2 T02340131
KONL 202055Z AUTO 17018G27KT 10SM BKN050 23/13 A2956 RMK AO2 T02270130
KONL 202035Z AUTO 17021G31KT 10SM CLR 24/13 A2957 RMK AO2 T02370131
KONL 202015Z AUTO 17015G27KT 10SM CLR 24/13 A2957 RMK AO2 T02380133
KONL 201955Z AUTO 16021G27KT 10SM CLR 24/13 A2957 RMK AO2 T02390131
KONL 201935Z AUTO 16018G25KT 10SM CLR 24/13 A2959 RMK AO2 T02400132
KONL 201915Z AUTO 16018G24KT 10SM CLR 23/13 A2960 RMK AO2 T02250133
KONL 201855Z AUTO 17019G25KT 10SM CLR 22/13 A2963 RMK AO2 T02160130
KONL 201835Z AUTO 17012G18KT 10SM CLR 21/13 A2964 RMK AO2 T02120128
KONL 201815Z AUTO 17021G26KT 10SM CLR 21/13 A2967 RMK AO2 T02140127
KONL 201755Z AUTO 18017G24KT 10SM CLR 21/13 A2967 RMK AO2 T02130127 10213 20133
KONL 201735Z AUTO 19014KT 10SM CLR 20/12 A2969 RMK AO2 T01990124
KONL 201715Z AUTO 18017G25KT 10SM CLR 20/12 A2969 RMK AO2 T02020122
KONL 201655Z AUTO 17018G24KT 10SM CLR 20/12 A2970 RMK AO2 T01960121
KONL 201635Z AUTO 19015G25KT 10SM CLR 20/12 A2971 RMK AO2 T01960118
KONL 201615Z AUTO 18022G27KT 10SM CLR 19/12 A2971 RMK AO2 T01920115
KONL 201555Z AUTO 18017G22KT 10SM CLR 19/12 A2973 RMK AO2 T01860115
KONL 201535Z AUTO 18017G22KT 10SM CLR 17/11 A2973 RMK AO2 T01720110
KONL 201515Z AUTO 18018G25KT 10SM CLR 17/11 A2974 RMK AO2 T01650106
KONL 201455Z AUTO 18018G24KT 10SM CLR 15/10 A2975 RMK AO2 T01520102
KONL 201435Z AUTO 18016G25KT 10SM CLR 15/10 A2975 RMK AO2 T01500101
KONL 201415Z AUTO 18017G22KT 10SM CLR 15/10 A2975 RMK AO2 T01460100
KONL 201355Z AUTO 18018G22KT 10SM CLR 14/10 A2975 RMK AO2 T01430098
KONL 201335Z AUTO 18016KT 10SM CLR 14/10 A2975 RMK AO2 T01370096
KONL 201315Z AUTO 18014KT 10SM CLR 14/10 A2976 RMK AO2 T01360095
KONL 201255Z AUTO 18013G17KT 10SM CLR 14/10 A2976 RMK AO2 T01350095
KONL 201235Z AUTO 18012G19KT 10SM CLR 13/09 A2977 RMK AO2 T01340094
KONL 201215Z AUTO 17013G19KT 10SM CLR 14/09 A2977 RMK AO2 T01350092
KONL 201155Z AUTO 17013KT 10SM CLR 14/09 A2978 RMK AO2 T01350092 10167 20132
KONL 201135Z AUTO 17012G18KT 10SM CLR 14/09 A2978 RMK AO2 T01360092
KONL 201115Z AUTO 17012KT 10SM CLR 14/09 A2979 RMK AO2 T01350090
KONL 201055Z AUTO 17012KT 10SM CLR 13/09 A2979 RMK AO2 T01330090
KONL 201035Z AUTO 18012G15KT 10SM CLR 13/09 A2979 RMK AO2 T01320088
KONL 201015Z AUTO 18012KT 10SM CLR 14/09 A2980 RMK AO2 T01350087
KONL 200955Z AUTO 17009KT 10SM CLR 14/09 A2980 RMK AO2 T01370086
KONL 200935Z AUTO 18012KT 10SM CLR 14/09 A2980 RMK AO2 T01400086
KONL 200915Z AUTO 18012KT 10SM CLR 14/09 A2981 RMK AO2 T01400085
KONL 200855Z AUTO 19011G16KT 10SM CLR 14/08 A2981 RMK AO2 T01410084
KONL 200835Z AUTO 18011KT 10SM CLR 14/08 A2982 RMK AO2 T01410083
KONL 200815Z AUTO 18010G17KT 10SM CLR 15/08 A2983 RMK AO2 T01450082
KONL 200755Z AUTO 18011KT 10SM CLR 15/08 A2983 RMK AO2 T01480082
KONL 200735Z AUTO 18012G16KT 10SM CLR 15/08 A2983 RMK AO2 T01510081
KONL 200715Z AUTO 18010G16KT 10SM CLR 16/08 A2984 RMK AO2 T01550082
KONL 200655Z AUTO 18011G15KT 10SM CLR 16/08 A2984 RMK AO2 T01580082
KONL 200635Z AUTO 18010G15KT 10SM CLR 16/08 A2985 RMK AO2 T01610082
KONL 200615Z AUTO 18011G17KT 10SM CLR 17/08 A2985 RMK AO2 T01650082
KONL 200555Z AUTO 18011KT 10SM CLR 17/08 A2986 RMK AO2 T01670084 10200 20161 402520037
KONL 200535Z AUTO 18009G15KT 10SM CLR 17/09 A2986 RMK AO2 T01700086
KONL 200515Z AUTO 18009KT 10SM CLR 17/09 A2987 RMK AO2 T01660090
KONL 200455Z AUTO 17006KT 10SM CLR 16/10 A2987 RMK AO2 T01640095
KONL 200435Z AUTO 17007KT 10SM CLR 16/10 A2987 RMK AO2 T01630100
KONL 200415Z AUTO 17006KT 10SM CLR 17/10 A2988 RMK AO2 T01650103
KONL 200355Z AUTO 17007KT 10SM CLR 17/11 A2988 RMK AO2 T01680105
KONL 200335Z AUTO 15007KT 10SM CLR 17/11 A2988 RMK AO2 T01670106
KONL 200315Z AUTO 16008KT 10SM CLR 17/11 A2988 RMK AO2 T01700105
KONL 200255Z AUTO 16006KT 10SM CLR 17/10 A2988 RMK AO2 T01700102
KONL 200235Z AUTO 17008KT 10SM CLR 17/10 A2988 RMK AO2 T01700100
KONL 200215Z AUTO 16008KT 10SM CLR 17/10 A2988 RMK AO2 T01720097
KONL 200155Z AUTO 16007KT 10SM CLR 17/10 A2988 RMK AO2 T01670095
KONL 200135Z AUTO 16006KT 10SM CLR 17/09 A2988 RMK AO2 T01710093
KONL 200115Z AUTO 16008KT 10SM CLR 18/09 A2988 RMK AO2 T01770092
KONL 200055Z AUTO 16007KT 10SM CLR 18/09 A2989 RMK AO2 T01840091
KONL 200035Z AUTO 16009KT 10SM CLR 19/09 A2989 RMK AO2 T01910091
KONL 200015Z AUTO 16008KT 10SM CLR 20/09 A2988 RMK AO2 T01950091
KONL 192355Z AUTO 16008KT 10SM CLR 20/09 A2989 RMK AO2 T02020094 10252 20202
KONL 192335Z AUTO 16008KT 10SM CLR 21/09 A2989 RMK AO2 T02100092
KONL 192315Z AUTO 17009KT 10SM CLR 22/09 A2989 RMK AO2 T02240087
KONL 192255Z AUTO 17009KT 10SM CLR 24/09 A2990 RMK AO2 T02350089
KONL 192235Z AUTO 17010KT 10SM CLR 24/09 A2990 RMK AO2 T02430090
KONL 192215Z AUTO 17010KT 10SM CLR 25/09 A2990 RMK AO2 T02500085
KONL 192155Z AUTO 17012KT 10SM CLR 25/08 A2990 RMK AO2 T02500082
KONL 192135Z AUTO 18013G18KT 10SM CLR 25/08 A2990 RMK AO2 T02520081
KONL 192115Z AUTO 17013KT 10SM CLR 25/08 A2991 RMK AO2 T02510080
KONL 192055Z AUTO 18012G17KT 10SM CLR 25/08 A2991 RMK AO2 T02490080
KONL 192035Z AUTO 18014G18KT 10SM CLR 25/08 A2992 RMK AO2 T02460079
KONL 192015Z AUTO 19013KT 10SM CLR 24/08 A2992 RMK AO2 T02440076
KONL 191955Z AUTO 18012G16KT 10SM CLR 24/07 A2993 RMK AO2 T02420074
KONL 191935Z AUTO 19012G18KT 10SM CLR 24/07 A2994 RMK AO2 T02400070
KONL 191915Z AUTO 19013G17KT 10SM CLR 24/07 A2995 RMK AO2 T02380073
KONL 191855Z AUTO 18013KT 10SM CLR 23/07 A2996 RMK AO2 T02320069
KONL 191835Z AUTO 18010G17KT 10SM CLR 23/07 A2997 RMK AO2 T02260071
KONL 191815Z AUTO 18013KT 10SM CLR 22/07 A2998 RMK AO2 T02200072
KONL 191755Z AUTO 18013G17KT 10SM CLR 21/07 A2999 RMK AO2 T02110068 10211 20046
KONL 191735Z AUTO 18012G16KT 10SM CLR 21/07 A3000 RMK AO2 T02060066
KONL 191715Z AUTO 18010G17KT 10SM CLR 20/07 A3000 RMK AO2 T02020072
KONL 191655Z AUTO 19011KT 10SM CLR 20/07 A3001 RMK AO2 T01950074
KONL 191635Z AUTO 18011KT 10SM CLR 19/08 A3001 RMK AO2 T01860075
KONL 191615Z AUTO 19010KT 10SM CLR 17/08 A3001 RMK AO2 T01730077
KONL 191555Z AUTO 19011KT 10SM CLR 16/07 A3002 RMK AO2 T01600074
KONL 191535Z AUTO 19009KT 10SM CLR 15/08 A3002 RMK AO2 T01470075
KONL 191515Z AUTO 19008KT 10SM CLR 13/07 A3002 RMK AO2 T01320068
KONL 191455Z AUTO 19008KT 10SM CLR 12/06 A3003 RMK AO2 T01200063
KONL 191435Z AUTO 19006KT 10SM CLR 10/06 A3003 RMK AO2 T01030056
KONL 191415Z AUTO 19005KT 10SM CLR 09/05 A3003 RMK AO2 T00850049
KONL 191355Z AUTO 18006KT 10SM CLR 08/04 A3003 RMK AO2 T00760040
KONL 191335Z AUTO 18005KT 10SM CLR 07/04 A3002 RMK AO2 T00650035
KONL 191315Z AUTO 18006KT 10SM CLR 06/03 A3002 RMK AO2 T00580029